< Typhoon 198818 1988 Season Typhoon 198820 >
Typhoon 198819 (IRMA)
General InformationTrack Information on Google MapsDetailed Wind InformationList of All Images || Disaster Info.ResourceGoogle EarthGE AnimationAtom FeedGeoJSON
Detalied Best Track (Time Zone = UTC)
Year Month Day Hour Lat. Long. Pressure (hPa) Wind (kt) Class Image Chart
1988 9 11 00 21.0 159.0 1008 0 2 Image Chart
1988 9 11 06 21.0 159.0 1006 0 2 Image Chart
1988 9 11 12 21.5 159.5 1004 0 2 Image Chart
1988 9 11 18 22.0 160.0 1000 0 2 Image Chart
1988 9 12 00 22.6 160.2 998 35 3 Image Chart
1988 9 12 06 23.5 160.0 996 35 3 Image Chart
1988 9 12 12 24.0 159.5 996 35 3 Image Chart
1988 9 12 18 24.4 158.9 992 40 3 Image Chart
1988 9 13 00 24.8 158.2 992 40 3 Image Chart
1988 9 13 06 25.2 158.0 992 40 3 Image Chart
1988 9 13 12 25.7 158.2 992 45 3 Image Chart
1988 9 13 18 26.1 158.1 990 45 3 Image Chart
1988 9 14 00 26.5 157.8 990 45 3 Image Chart
1988 9 14 06 26.9 157.8 990 45 3 Image Chart
1988 9 14 12 27.3 157.4 990 45 3 Image Chart
1988 9 14 18 27.1 156.7 990 55 4 Image Chart
1988 9 15 00 27.5 156.7 990 50 4 Image Chart
1988 9 15 06 28.3 155.9 992 45 3 Image Chart
1988 9 15 12 29.1 155.4 994 45 3 Image Chart
1988 9 15 18 29.8 155.4 996 40 3 Image Chart
1988 9 16 00 30.4 155.5 998 35 3 Image Chart
1988 9 16 06 31.2 156.2 1000 35 3 Image Chart
1988 9 16 12 32.0 157.0 1004 0 2 Image Chart
1988 9 16 18 33.0 158.0 1008 0 2 Image Chart
1988 9 17 00 34.0 159.0 1012 0 2 Image Chart
Japan Meteorological Agency Best Track Data | Correction Date : 1992-10-21
< Typhoon 198818 1988 Season Typhoon 198820 >

Help